sensor_id;sensor_type;location;lat;lon;timestamp;temperature;humidity
7167;DHT22;3625;51.762;14.320;2023-06-26T00:01:33;18.80;99.90
7167;DHT22;3625;51.762;14.320;2023-06-26T00:04:02;18.70;99.90
7167;DHT22;3625;51.762;14.320;2023-06-26T00:06:32;18.60;99.90
7167;DHT22;3625;51.762;14.320;2023-06-26T00:09:00;18.60;99.90
7167;DHT22;3625;51.762;14.320;2023-06-26T00:11:29;18.50;99.90
7167;DHT22;3625;51.762;14.320;2023-06-26T00:14:00;18.50;99.90
7167;DHT22;3625;51.762;14.320;2023-06-26T00:16:29;18.40;99.90
7167;DHT22;3625;51.762;14.320;2023-06-26T00:18:58;18.40;99.90
7167;DHT22;3625;51.762;14.320;2023-06-26T00:21:26;18.30;99.90
7167;DHT22;3625;51.762;14.320;2023-06-26T00:23:56;18.30;99.90
7167;DHT22;3625;51.762;14.320;2023-06-26T00:26:25;18.30;99.90
7167;DHT22;3625;51.762;14.320;2023-06-26T00:28:53;18.70;99.90
7167;DHT22;3625;51.762;14.320;2023-06-26T00:31:22;18.20;99.90
7167;DHT22;3625;51.762;14.320;2023-06-26T00:33:51;18.10;99.90
7167;DHT22;3625;51.762;14.320;2023-06-26T00:36:19;18.10;99.90
7167;DHT22;3625;51.762;14.320;2023-06-26T00:38:49;18.10;99.90
7167;DHT22;3625;51.762;14.320;2023-06-26T00:41:19;19.70;99.90
7167;DHT22;3625;51.762;14.320;2023-06-26T00:43:48;18.00;99.90
7167;DHT22;3625;51.762;14.320;2023-06-26T00:46:18;18.00;99.90
7167;DHT22;3625;51.762;14.320;2023-06-26T00:48:48;18.00;99.90
7167;DHT22;3625;51.762;14.320;2023-06-26T00:51:17;18.00;99.90
7167;DHT22;3625;51.762;14.320;2023-06-26T00:53:47;18.00;99.90
7167;DHT22;3625;51.762;14.320;2023-06-26T00:56:19;18.00;99.90
7167;DHT22;3625;51.762;14.320;2023-06-26T00:58:48;18.10;99.90
7167;DHT22;3625;51.762;14.320;2023-06-26T01:01:17;18.10;99.90
7167;DHT22;3625;51.762;14.320;2023-06-26T01:03:49;18.10;99.90
7167;DHT22;3625;51.762;14.320;2023-06-26T01:06:21;18.20;99.90
7167;DHT22;3625;51.762;14.320;2023-06-26T01:08:52;18.20;99.90
7167;DHT22;3625;51.762;14.320;2023-06-26T01:11:22;18.30;99.90
7167;DHT22;3625;51.762;14.320;2023-06-26T01:13:51;18.30;99.90
7167;DHT22;3625;51.762;14.320;2023-06-26T01:16:21;18.40;99.90
7167;DHT22;3625;51.762;14.320;2023-06-26T01:18:52;18.30;99.90
7167;DHT22;3625;51.762;14.320;2023-06-26T01:21:22;18.40;99.90
7167;DHT22;3625;51.762;14.320;2023-06-26T01:23:58;18.40;99.90
7167;DHT22;3625;51.762;14.320;2023-06-26T01:26:35;18.40;99.90
7167;DHT22;3625;51.762;14.320;2023-06-26T01:29:06;18.40;99.90
7167;DHT22;3625;51.762;14.320;2023-06-26T01:31:38;16.10;99.90
7167;DHT22;3625;51.762;14.320;2023-06-26T01:34:08;18.40;99.90
7167;DHT22;3625;51.762;14.320;2023-06-26T01:36:36;18.40;99.90
7167;DHT22;3625;51.762;14.320;2023-06-26T01:39:05;18.40;99.90
7167;DHT22;3625;51.762;14.320;2023-06-26T01:41:36;18.40;99.90
7167;DHT22;3625;51.762;14.320;2023-06-26T01:44:17;18.40;99.90
7167;DHT22;3625;51.762;14.320;2023-06-26T01:47:01;18.40;99.90
7167;DHT22;3625;51.762;14.320;2023-06-26T01:49:40;18.40;99.90
7167;DHT22;3625;51.762;14.320;2023-06-26T01:52:20;18.30;99.90
7167;DHT22;3625;51.762;14.320;2023-06-26T01:54:58;18.30;99.90
7167;DHT22;3625;51.762;14.320;2023-06-26T01:57:32;18.20;99.90
7167;DHT22;3625;51.762;14.320;2023-06-26T02:00:04;18.20;99.90
7167;DHT22;3625;51.762;14.320;2023-06-26T02:02:41;18.10;99.90
7167;DHT22;3625;51.762;14.320;2023-06-26T02:05:13;18.00;99.90
7167;DHT22;3625;51.762;14.320;2023-06-26T02:07:42;18.00;99.90
7167;DHT22;3625;51.762;14.320;2023-06-26T02:10:11;17.90;99.90
7167;DHT22;3625;51.762;14.320;2023-06-26T02:12:41;17.90;99.90
7167;DHT22;3625;51.762;14.320;2023-06-26T02:15:12;18.10;99.90
7167;DHT22;3625;51.762;14.320;2023-06-26T02:17:41;17.70;99.90
7167;DHT22;3625;51.762;14.320;2023-06-26T02:20:10;17.60;99.90
7167;DHT22;3625;51.762;14.320;2023-06-26T02:22:39;17.60;99.90
7167;DHT22;3625;51.762;14.320;2023-06-26T02:25:10;17.50;99.90
7167;DHT22;3625;51.762;14.320;2023-06-26T02:27:40;17.50;99.90
7167;DHT22;3625;51.762;14.320;2023-06-26T02:30:10;17.40;99.90
7167;DHT22;3625;51.762;14.320;2023-06-26T02:32:38;17.40;99.90
7167;DHT22;3625;51.762;14.320;2023-06-26T02:35:08;17.30;99.90
7167;DHT22;3625;51.762;14.320;2023-06-26T02:37:42;17.30;99.90
7167;DHT22;3625;51.762;14.320;2023-06-26T02:40:10;17.30;99.90
7167;DHT22;3625;51.762;14.320;2023-06-26T02:42:43;17.20;99.90
7167;DHT22;3625;51.762;14.320;2023-06-26T02:45:12;17.20;99.90
7167;DHT22;3625;51.762;14.320;2023-06-26T02:47:40;17.20;99.90
7167;DHT22;3625;51.762;14.320;2023-06-26T02:50:10;17.20;99.90
7167;DHT22;3625;51.762;14.320;2023-06-26T02:53:05;17.20;99.90
7167;DHT22;3625;51.762;14.320;2023-06-26T02:55:34;17.20;99.90
7167;DHT22;3625;51.762;14.320;2023-06-26T02:58:04;17.20;99.90
7167;DHT22;3625;51.762;14.320;2023-06-26T03:00:34;17.20;99.90
7167;DHT22;3625;51.762;14.320;2023-06-26T03:03:12;17.10;99.90
7167;DHT22;3625;51.762;14.320;2023-06-26T03:05:41;17.20;99.90
7167;DHT22;3625;51.762;14.320;2023-06-26T03:08:10;17.20;99.90
7167;DHT22;3625;51.762;14.320;2023-06-26T03:10:38;17.30;99.90
7167;DHT22;3625;51.762;14.320;2023-06-26T03:13:09;17.50;99.90
7167;DHT22;3625;51.762;14.320;2023-06-26T03:15:38;17.60;99.90
7167;DHT22;3625;51.762;14.320;2023-06-26T03:18:07;17.70;99.90
7167;DHT22;3625;51.762;14.320;2023-06-26T03:20:36;17.80;99.90
7167;DHT22;3625;51.762;14.320;2023-06-26T03:23:05;17.90;99.90
7167;DHT22;3625;51.762;14.320;2023-06-26T03:25:34;18.00;99.90
7167;DHT22;3625;51.762;14.320;2023-06-26T03:28:22;18.20;99.90
7167;DHT22;3625;51.762;14.320;2023-06-26T03:30:50;18.30;99.90
7167;DHT22;3625;51.762;14.320;2023-06-26T03:33:20;18.50;99.90
7167;DHT22;3625;51.762;14.320;2023-06-26T03:35:51;18.50;99.90
7167;DHT22;3625;51.762;14.320;2023-06-26T03:38:21;18.60;99.90
7167;DHT22;3625;51.762;14.320;2023-06-26T03:40:52;18.70;99.90
7167;DHT22;3625;51.762;14.320;2023-06-26T03:43:23;18.80;99.90
7167;DHT22;3625;51.762;14.320;2023-06-26T03:46:06;18.80;99.90
7167;DHT22;3625;51.762;14.320;2023-06-26T03:48:35;18.90;99.90
7167;DHT22;3625;51.762;14.320;2023-06-26T03:51:05;19.00;99.90
7167;DHT22;3625;51.762;14.320;2023-06-26T03:53:34;19.10;99.90
7167;DHT22;3625;51.762;14.320;2023-06-26T03:56:03;19.20;99.90
7167;DHT22;3625;51.762;14.320;2023-06-26T03:58:33;19.30;99.90
7167;DHT22;3625;51.762;14.320;2023-06-26T04:01:01;19.40;99.90
7167;DHT22;3625;51.762;14.320;2023-06-26T04:03:30;19.50;99.90
7167;DHT22;3625;51.762;14.320;2023-06-26T04:05:59;19.60;99.90
7167;DHT22;3625;51.762;14.320;2023-06-26T04:08:28;19.70;99.90
7167;DHT22;3625;51.762;14.320;2023-06-26T04:10:56;19.80;99.90
7167;DHT22;3625;51.762;14.320;2023-06-26T04:13:25;19.90;99.90
7167;DHT22;3625;51.762;14.320;2023-06-26T04:15:55;20.10;99.90
7167;DHT22;3625;51.762;14.320;2023-06-26T04:18:24;20.10;99.90
7167;DHT22;3625;51.762;14.320;2023-06-26T04:21:05;20.20;99.90
7167;DHT22;3625;51.762;14.320;2023-06-26T04:23:35;20.30;99.90
7167;DHT22;3625;51.762;14.320;2023-06-26T04:26:04;20.40;99.90
7167;DHT22;3625;51.762;14.320;2023-06-26T04:28:34;20.50;99.90
7167;DHT22;3625;51.762;14.320;2023-06-26T04:31:04;20.60;99.90
7167;DHT22;3625;51.762;14.320;2023-06-26T04:33:33;20.70;99.90
7167;DHT22;3625;51.762;14.320;2023-06-26T04:36:03;20.80;99.90
7167;DHT22;3625;51.762;14.320;2023-06-26T04:38:31;21.10;99.90
7167;DHT22;3625;51.762;14.320;2023-06-26T04:41:01;21.10;99.90
7167;DHT22;3625;51.762;14.320;2023-06-26T04:43:30;21.10;99.90
7167;DHT22;3625;51.762;14.320;2023-06-26T04:45:58;21.10;99.90
7167;DHT22;3625;51.762;14.320;2023-06-26T04:48:28;21.10;99.90
7167;DHT22;3625;51.762;14.320;2023-06-26T04:50:58;21.10;99.90
7167;DHT22;3625;51.762;14.320;2023-06-26T04:53:26;21.20;99.90
7167;DHT22;3625;51.762;14.320;2023-06-26T04:55:55;21.20;99.90
7167;DHT22;3625;51.762;14.320;2023-06-26T04:58:23;21.40;99.90
7167;DHT22;3625;51.762;14.320;2023-06-26T05:00:52;21.50;99.90
7167;DHT22;3625;51.762;14.320;2023-06-26T05:03:22;21.60;99.90
7167;DHT22;3625;51.762;14.320;2023-06-26T05:05:56;21.60;99.90
7167;DHT22;3625;51.762;14.320;2023-06-26T05:08:25;21.60;99.90
7167;DHT22;3625;51.762;14.320;2023-06-26T05:10:54;21.70;99.90
7167;DHT22;3625;51.762;14.320;2023-06-26T05:13:24;21.70;99.90
7167;DHT22;3625;51.762;14.320;2023-06-26T05:15:53;21.70;99.90
7167;DHT22;3625;51.762;14.320;2023-06-26T05:18:22;21.70;99.90
7167;DHT22;3625;51.762;14.320;2023-06-26T05:20:51;21.70;99.90
7167;DHT22;3625;51.762;14.320;2023-06-26T05:23:24;21.70;99.90
7167;DHT22;3625;51.762;14.320;2023-06-26T05:25:54;21.90;99.90
7167;DHT22;3625;51.762;14.320;2023-06-26T05:28:24;21.90;99.90
7167;DHT22;3625;51.762;14.320;2023-06-26T05:30:55;21.90;99.90
7167;DHT22;3625;51.762;14.320;2023-06-26T05:33:25;21.90;99.90
7167;DHT22;3625;51.762;14.320;2023-06-26T05:35:55;21.90;99.90
7167;DHT22;3625;51.762;14.320;2023-06-26T05:38:27;21.90;99.90
7167;DHT22;3625;51.762;14.320;2023-06-26T05:41:00;21.90;99.90
7167;DHT22;3625;51.762;14.320;2023-06-26T05:43:29;22.00;99.90
7167;DHT22;3625;51.762;14.320;2023-06-26T05:45:57;22.00;99.90
7167;DHT22;3625;51.762;14.320;2023-06-26T05:48:26;22.00;99.90
7167;DHT22;3625;51.762;14.320;2023-06-26T05:50:55;22.00;99.90
7167;DHT22;3625;51.762;14.320;2023-06-26T05:53:26;22.30;99.90
7167;DHT22;3625;51.762;14.320;2023-06-26T05:55:57;22.20;99.90
7167;DHT22;3625;51.762;14.320;2023-06-26T05:58:30;22.20;99.90
7167;DHT22;3625;51.762;14.320;2023-06-26T06:00:58;22.30;99.90
7167;DHT22;3625;51.762;14.320;2023-06-26T06:03:27;22.30;99.90
7167;DHT22;3625;51.762;14.320;2023-06-26T06:05:55;22.40;99.90
7167;DHT22;3625;51.762;14.320;2023-06-26T06:08:24;22.40;99.90
7167;DHT22;3625;51.762;14.320;2023-06-26T06:10:54;22.50;99.90
7167;DHT22;3625;51.762;14.320;2023-06-26T06:13:22;22.50;99.90
7167;DHT22;3625;51.762;14.320;2023-06-26T06:15:51;22.60;99.90
7167;DHT22;3625;51.762;14.320;2023-06-26T06:18:19;22.60;99.90
7167;DHT22;3625;51.762;14.320;2023-06-26T06:20:50;22.70;99.90
7167;DHT22;3625;51.762;14.320;2023-06-26T06:23:18;22.70;99.90
7167;DHT22;3625;51.762;14.320;2023-06-26T06:25:47;22.80;99.90
7167;DHT22;3625;51.762;14.320;2023-06-26T06:28:17;22.80;99.90
7167;DHT22;3625;51.762;14.320;2023-06-26T06:30:45;22.90;99.90
7167;DHT22;3625;51.762;14.320;2023-06-26T06:33:15;22.90;99.90
7167;DHT22;3625;51.762;14.320;2023-06-26T06:35:46;23.00;99.90
7167;DHT22;3625;51.762;14.320;2023-06-26T06:38:17;23.00;99.90
7167;DHT22;3625;51.762;14.320;2023-06-26T06:40:46;23.10;99.90
7167;DHT22;3625;51.762;14.320;2023-06-26T06:43:14;23.20;99.90
7167;DHT22;3625;51.762;14.320;2023-06-26T06:45:45;23.20;99.90
7167;DHT22;3625;51.762;14.320;2023-06-26T06:48:14;23.20;99.90
7167;DHT22;3625;51.762;14.320;2023-06-26T06:50:42;23.30;99.90
7167;DHT22;3625;51.762;14.320;2023-06-26T06:53:17;23.30;99.90
7167;DHT22;3625;51.762;14.320;2023-06-26T06:55:47;23.30;99.90
7167;DHT22;3625;51.762;14.320;2023-06-26T06:58:15;23.30;99.90
7167;DHT22;3625;51.762;14.320;2023-06-26T07:00:47;23.40;99.90
7167;DHT22;3625;51.762;14.320;2023-06-26T07:03:16;23.50;99.90
7167;DHT22;3625;51.762;14.320;2023-06-26T07:05:44;23.60;99.90
7167;DHT22;3625;51.762;14.320;2023-06-26T07:08:13;23.60;99.90
7167;DHT22;3625;51.762;14.320;2023-06-26T07:10:42;23.70;99.90
7167;DHT22;3625;51.762;14.320;2023-06-26T07:13:11;23.80;99.90
7167;DHT22;3625;51.762;14.320;2023-06-26T07:15:40;23.90;99.90
7167;DHT22;3625;51.762;14.320;2023-06-26T07:18:10;24.00;99.90
7167;DHT22;3625;51.762;14.320;2023-06-26T07:20:41;24.00;99.90
7167;DHT22;3625;51.762;14.320;2023-06-26T07:23:10;24.10;99.90
7167;DHT22;3625;51.762;14.320;2023-06-26T07:25:38;24.20;99.90
7167;DHT22;3625;51.762;14.320;2023-06-26T07:28:10;24.30;99.90
7167;DHT22;3625;51.762;14.320;2023-06-26T07:30:38;24.30;99.90
7167;DHT22;3625;51.762;14.320;2023-06-26T07:33:07;24.40;99.90
7167;DHT22;3625;51.762;14.320;2023-06-26T07:35:39;24.40;99.90
7167;DHT22;3625;51.762;14.320;2023-06-26T07:38:08;24.50;99.90
7167;DHT22;3625;51.762;14.320;2023-06-26T07:40:36;24.50;99.90
7167;DHT22;3625;51.762;14.320;2023-06-26T07:43:05;24.50;99.90
7167;DHT22;3625;51.762;14.320;2023-06-26T07:45:33;24.70;99.90
7167;DHT22;3625;51.762;14.320;2023-06-26T07:48:02;24.70;99.90
7167;DHT22;3625;51.762;14.320;2023-06-26T07:50:31;24.80;99.90
7167;DHT22;3625;51.762;14.320;2023-06-26T07:53:02;24.80;99.90
7167;DHT22;3625;51.762;14.320;2023-06-26T07:55:32;24.90;99.90
7167;DHT22;3625;51.762;14.320;2023-06-26T07:58:01;24.90;99.90
7167;DHT22;3625;51.762;14.320;2023-06-26T08:00:29;24.90;99.90
7167;DHT22;3625;51.762;14.320;2023-06-26T08:02:58;25.00;99.90
7167;DHT22;3625;51.762;14.320;2023-06-26T08:05:27;25.00;99.90
7167;DHT22;3625;51.762;14.320;2023-06-26T08:07:56;25.00;99.90
7167;DHT22;3625;51.762;14.320;2023-06-26T08:10:26;25.20;99.90
7167;DHT22;3625;51.762;14.320;2023-06-26T08:12:54;25.20;99.90
7167;DHT22;3625;51.762;14.320;2023-06-26T08:15:23;25.10;99.90
7167;DHT22;3625;51.762;14.320;2023-06-26T08:17:51;25.20;99.90
7167;DHT22;3625;51.762;14.320;2023-06-26T08:20:20;25.30;99.90
7167;DHT22;3625;51.762;14.320;2023-06-26T08:22:49;25.30;99.90
7167;DHT22;3625;51.762;14.320;2023-06-26T08:25:19;25.30;99.90
7167;DHT22;3625;51.762;14.320;2023-06-26T08:27:49;25.40;99.90
7167;DHT22;3625;51.762;14.320;2023-06-26T08:32:49;25.60;99.90
7167;DHT22;3625;51.762;14.320;2023-06-26T08:35:18;25.50;99.90
7167;DHT22;3625;51.762;14.320;2023-06-26T08:37:47;25.60;99.90
7167;DHT22;3625;51.762;14.320;2023-06-26T08:40:17;25.60;99.90
7167;DHT22;3625;51.762;14.320;2023-06-26T08:42:50;25.60;99.90
7167;DHT22;3625;51.762;14.320;2023-06-26T08:45:20;25.70;99.90
7167;DHT22;3625;51.762;14.320;2023-06-26T08:47:51;25.80;99.90
7167;DHT22;3625;51.762;14.320;2023-06-26T08:50:23;25.70;99.90
7167;DHT22;3625;51.762;14.320;2023-06-26T08:53:01;25.80;99.90
7167;DHT22;3625;51.762;14.320;2023-06-26T08:55:38;25.90;99.90
7167;DHT22;3625;51.762;14.320;2023-06-26T08:58:11;26.00;99.90
7167;DHT22;3625;51.762;14.320;2023-06-26T09:00:40;26.00;99.90
7167;DHT22;3625;51.762;14.320;2023-06-26T09:03:09;26.10;99.90
7167;DHT22;3625;51.762;14.320;2023-06-26T09:05:39;26.20;99.90
7167;DHT22;3625;51.762;14.320;2023-06-26T09:08:08;26.30;99.90
7167;DHT22;3625;51.762;14.320;2023-06-26T09:10:37;26.40;99.90
7167;DHT22;3625;51.762;14.320;2023-06-26T09:13:06;26.50;99.90
7167;DHT22;3625;51.762;14.320;2023-06-26T09:15:56;26.50;99.90
7167;DHT22;3625;51.762;14.320;2023-06-26T09:18:25;26.50;99.90
7167;DHT22;3625;51.762;14.320;2023-06-26T09:20:54;26.60;99.90
7167;DHT22;3625;51.762;14.320;2023-06-26T09:23:25;26.60;99.90
7167;DHT22;3625;51.762;14.320;2023-06-26T09:25:54;26.60;99.90
7167;DHT22;3625;51.762;14.320;2023-06-26T09:28:26;26.60;99.90
7167;DHT22;3625;51.762;14.320;2023-06-26T09:31:00;26.70;99.90
7167;DHT22;3625;51.762;14.320;2023-06-26T09:33:35;26.80;99.90
7167;DHT22;3625;51.762;14.320;2023-06-26T09:36:27;27.00;99.90
7167;DHT22;3625;51.762;14.320;2023-06-26T09:39:08;27.00;99.90
7167;DHT22;3625;51.762;14.320;2023-06-26T09:41:41;27.00;99.90
7167;DHT22;3625;51.762;14.320;2023-06-26T09:44:16;27.00;99.90
7167;DHT22;3625;51.762;14.320;2023-06-26T09:46:50;27.10;99.90
7167;DHT22;3625;51.762;14.320;2023-06-26T09:49:20;27.10;99.90
7167;DHT22;3625;51.762;14.320;2023-06-26T09:51:49;27.20;99.90
7167;DHT22;3625;51.762;14.320;2023-06-26T09:54:21;27.20;99.90
7167;DHT22;3625;51.762;14.320;2023-06-26T09:57:09;27.20;99.90
7167;DHT22;3625;51.762;14.320;2023-06-26T09:59:39;27.20;99.90
7167;DHT22;3625;51.762;14.320;2023-06-26T10:02:14;27.30;99.90
7167;DHT22;3625;51.762;14.320;2023-06-26T10:04:42;27.40;99.90
7167;DHT22;3625;51.762;14.320;2023-06-26T10:07:12;27.40;99.90
7167;DHT22;3625;51.762;14.320;2023-06-26T10:09:42;27.40;99.90
7167;DHT22;3625;51.762;14.320;2023-06-26T10:12:15;27.40;99.90
7167;DHT22;3625;51.762;14.320;2023-06-26T10:14:47;27.50;99.90
7167;DHT22;3625;51.762;14.320;2023-06-26T10:17:20;27.50;99.90
7167;DHT22;3625;51.762;14.320;2023-06-26T10:19:50;27.50;99.90
7167;DHT22;3625;51.762;14.320;2023-06-26T10:22:22;27.60;99.90
7167;DHT22;3625;51.762;14.320;2023-06-26T10:24:57;27.70;99.90
7167;DHT22;3625;51.762;14.320;2023-06-26T10:27:29;27.90;99.90
7167;DHT22;3625;51.762;14.320;2023-06-26T10:30:06;27.90;99.90
7167;DHT22;3625;51.762;14.320;2023-06-26T10:32:41;28.00;99.90
7167;DHT22;3625;51.762;14.320;2023-06-26T10:35:12;28.00;99.90
7167;DHT22;3625;51.762;14.320;2023-06-26T10:37:41;28.00;99.90
7167;DHT22;3625;51.762;14.320;2023-06-26T10:40:11;28.20;99.90
7167;DHT22;3625;51.762;14.320;2023-06-26T10:42:44;28.40;99.90
7167;DHT22;3625;51.762;14.320;2023-06-26T10:45:14;28.60;99.90
7167;DHT22;3625;51.762;14.320;2023-06-26T10:47:48;28.80;99.90
7167;DHT22;3625;51.762;14.320;2023-06-26T10:50:22;29.00;99.90
7167;DHT22;3625;51.762;14.320;2023-06-26T10:53:10;29.40;99.90
7167;DHT22;3625;51.762;14.320;2023-06-26T10:55:42;29.80;99.90
7167;DHT22;3625;51.762;14.320;2023-06-26T10:58:33;30.00;99.90
7167;DHT22;3625;51.762;14.320;2023-06-26T11:01:20;29.60;99.90
7167;DHT22;3625;51.762;14.320;2023-06-26T11:04:10;29.00;99.90
7167;DHT22;3625;51.762;14.320;2023-06-26T11:06:39;28.90;99.90
7167;DHT22;3625;51.762;14.320;2023-06-26T11:09:09;28.80;99.90
7167;DHT22;3625;51.762;14.320;2023-06-26T11:11:58;28.70;99.90
7167;DHT22;3625;51.762;14.320;2023-06-26T11:14:32;28.70;99.90
7167;DHT22;3625;51.762;14.320;2023-06-26T11:17:05;28.50;99.90
7167;DHT22;3625;51.762;14.320;2023-06-26T11:19:36;28.50;99.90
7167;DHT22;3625;51.762;14.320;2023-06-26T11:22:05;28.60;99.90
7167;DHT22;3625;51.762;14.320;2023-06-26T11:24:34;28.80;99.90
7167;DHT22;3625;51.762;14.320;2023-06-26T11:27:05;28.80;99.90
7167;DHT22;3625;51.762;14.320;2023-06-26T11:29:33;28.80;99.90
7167;DHT22;3625;51.762;14.320;2023-06-26T11:32:04;28.80;99.90
7167;DHT22;3625;51.762;14.320;2023-06-26T11:34:35;28.80;99.90
7167;DHT22;3625;51.762;14.320;2023-06-26T11:37:05;28.90;99.90
7167;DHT22;3625;51.762;14.320;2023-06-26T11:39:36;29.20;99.90
7167;DHT22;3625;51.762;14.320;2023-06-26T11:42:05;29.30;99.90
7167;DHT22;3625;51.762;14.320;2023-06-26T11:44:40;29.50;99.90
7167;DHT22;3625;51.762;14.320;2023-06-26T11:47:18;29.40;99.90
7167;DHT22;3625;51.762;14.320;2023-06-26T11:49:51;29.20;99.90
7167;DHT22;3625;51.762;14.320;2023-06-26T11:52:20;29.10;99.90
7167;DHT22;3625;51.762;14.320;2023-06-26T11:54:51;28.80;99.90
7167;DHT22;3625;51.762;14.320;2023-06-26T11:57:22;29.00;99.90
7167;DHT22;3625;51.762;14.320;2023-06-26T11:59:51;29.10;99.90
7167;DHT22;3625;51.762;14.320;2023-06-26T12:02:23;29.20;99.90
7167;DHT22;3625;51.762;14.320;2023-06-26T12:04:53;29.40;99.90
7167;DHT22;3625;51.762;14.320;2023-06-26T12:07:22;29.60;99.90
7167;DHT22;3625;51.762;14.320;2023-06-26T12:09:51;29.60;99.90
7167;DHT22;3625;51.762;14.320;2023-06-26T12:12:20;29.50;99.90
7167;DHT22;3625;51.762;14.320;2023-06-26T12:14:53;29.50;99.90
7167;DHT22;3625;51.762;14.320;2023-06-26T12:17:23;29.60;99.90
7167;DHT22;3625;51.762;14.320;2023-06-26T12:19:53;29.70;99.90
7167;DHT22;3625;51.762;14.320;2023-06-26T12:22:22;29.70;99.90
7167;DHT22;3625;51.762;14.320;2023-06-26T12:24:56;29.70;99.90
7167;DHT22;3625;51.762;14.320;2023-06-26T12:27:25;29.80;99.90
7167;DHT22;3625;51.762;14.320;2023-06-26T12:29:54;29.80;99.90
7167;DHT22;3625;51.762;14.320;2023-06-26T12:32:24;29.80;99.90
7167;DHT22;3625;51.762;14.320;2023-06-26T12:34:58;29.90;99.90
7167;DHT22;3625;51.762;14.320;2023-06-26T12:37:27;29.80;99.90
7167;DHT22;3625;51.762;14.320;2023-06-26T12:39:56;29.60;99.90
7167;DHT22;3625;51.762;14.320;2023-06-26T12:42:27;29.60;99.90
7167;DHT22;3625;51.762;14.320;2023-06-26T12:44:56;29.60;99.90
7167;DHT22;3625;51.762;14.320;2023-06-26T12:47:26;29.70;99.90
7167;DHT22;3625;51.762;14.320;2023-06-26T12:50:05;29.90;99.90
7167;DHT22;3625;51.762;14.320;2023-06-26T12:52:34;30.30;99.90
7167;DHT22;3625;51.762;14.320;2023-06-26T12:55:03;30.30;99.90
7167;DHT22;3625;51.762;14.320;2023-06-26T12:57:33;30.20;99.90
7167;DHT22;3625;51.762;14.320;2023-06-26T13:00:04;30.30;99.90
7167;DHT22;3625;51.762;14.320;2023-06-26T13:02:33;30.30;99.90
7167;DHT22;3625;51.762;14.320;2023-06-26T13:05:05;30.20;99.90
7167;DHT22;3625;51.762;14.320;2023-06-26T13:07:33;30.20;99.90
7167;DHT22;3625;51.762;14.320;2023-06-26T13:10:02;30.30;99.90
7167;DHT22;3625;51.762;14.320;2023-06-26T13:12:31;30.20;99.90
7167;DHT22;3625;51.762;14.320;2023-06-26T13:14:59;30.00;99.90
7167;DHT22;3625;51.762;14.320;2023-06-26T13:17:28;29.80;99.90
7167;DHT22;3625;51.762;14.320;2023-06-26T13:20:00;29.90;99.90
7167;DHT22;3625;51.762;14.320;2023-06-26T13:22:32;30.10;99.90
7167;DHT22;3625;51.762;14.320;2023-06-26T13:25:00;30.20;99.90
7167;DHT22;3625;51.762;14.320;2023-06-26T13:27:29;30.30;99.90
7167;DHT22;3625;51.762;14.320;2023-06-26T13:29:57;30.30;99.90
7167;DHT22;3625;51.762;14.320;2023-06-26T13:32:26;30.40;99.90
7167;DHT22;3625;51.762;14.320;2023-06-26T13:34:55;30.40;99.90
7167;DHT22;3625;51.762;14.320;2023-06-26T13:37:24;30.30;99.90
7167;DHT22;3625;51.762;14.320;2023-06-26T13:39:54;30.20;99.90
7167;DHT22;3625;51.762;14.320;2023-06-26T13:42:26;30.90;99.90
7167;DHT22;3625;51.762;14.320;2023-06-26T13:44:57;31.00;99.90
7167;DHT22;3625;51.762;14.320;2023-06-26T13:47:39;31.30;99.90
7167;DHT22;3625;51.762;14.320;2023-06-26T13:50:09;33.60;99.90
7167;DHT22;3625;51.762;14.320;2023-06-26T13:52:38;31.50;99.90
7167;DHT22;3625;51.762;14.320;2023-06-26T13:55:09;31.40;99.90
7167;DHT22;3625;51.762;14.320;2023-06-26T13:57:37;33.20;99.90
7167;DHT22;3625;51.762;14.320;2023-06-26T14:00:09;31.20;99.90
7167;DHT22;3625;51.762;14.320;2023-06-26T14:02:39;31.10;99.90
7167;DHT22;3625;51.762;14.320;2023-06-26T14:05:08;31.00;99.90
7167;DHT22;3625;51.762;14.320;2023-06-26T14:07:38;30.70;99.90
7167;DHT22;3625;51.762;14.320;2023-06-26T14:10:08;30.60;99.90
7167;DHT22;3625;51.762;14.320;2023-06-26T14:12:37;30.80;99.90
7167;DHT22;3625;51.762;14.320;2023-06-26T14:15:07;30.90;99.90
7167;DHT22;3625;51.762;14.320;2023-06-26T14:17:36;30.80;99.90
7167;DHT22;3625;51.762;14.320;2023-06-26T14:20:07;30.70;99.90
7167;DHT22;3625;51.762;14.320;2023-06-26T14:22:39;30.80;99.90
7167;DHT22;3625;51.762;14.320;2023-06-26T14:25:10;31.00;99.90
7167;DHT22;3625;51.762;14.320;2023-06-26T14:27:39;31.20;99.90
7167;DHT22;3625;51.762;14.320;2023-06-26T14:30:09;31.20;99.90
7167;DHT22;3625;51.762;14.320;2023-06-26T14:32:38;31.40;99.90
7167;DHT22;3625;51.762;14.320;2023-06-26T14:35:07;31.40;99.90
7167;DHT22;3625;51.762;14.320;2023-06-26T14:37:36;31.50;99.90
7167;DHT22;3625;51.762;14.320;2023-06-26T14:40:07;31.40;99.90
7167;DHT22;3625;51.762;14.320;2023-06-26T14:42:39;31.30;99.90
7167;DHT22;3625;51.762;14.320;2023-06-26T14:45:09;31.40;99.90
7167;DHT22;3625;51.762;14.320;2023-06-26T14:47:39;31.50;99.90
7167;DHT22;3625;51.762;14.320;2023-06-26T14:50:08;31.70;99.90
7167;DHT22;3625;51.762;14.320;2023-06-26T14:52:37;31.90;99.90
7167;DHT22;3625;51.762;14.320;2023-06-26T14:55:06;32.30;99.90
7167;DHT22;3625;51.762;14.320;2023-06-26T14:57:37;32.50;99.90
7167;DHT22;3625;51.762;14.320;2023-06-26T15:00:08;32.70;99.90
7167;DHT22;3625;51.762;14.320;2023-06-26T15:02:38;32.90;99.90
7167;DHT22;3625;51.762;14.320;2023-06-26T15:05:07;33.30;99.90
7167;DHT22;3625;51.762;14.320;2023-06-26T15:07:36;33.90;99.90
7167;DHT22;3625;51.762;14.320;2023-06-26T15:10:06;34.40;99.90
7167;DHT22;3625;51.762;14.320;2023-06-26T15:12:39;34.50;99.90
7167;DHT22;3625;51.762;14.320;2023-06-26T15:15:09;34.60;99.90
7167;DHT22;3625;51.762;14.320;2023-06-26T15:17:37;34.50;99.90
7167;DHT22;3625;51.762;14.320;2023-06-26T15:20:07;34.20;99.90
7167;DHT22;3625;51.762;14.320;2023-06-26T15:22:36;34.10;99.90
7167;DHT22;3625;51.762;14.320;2023-06-26T15:25:07;34.00;99.90
7167;DHT22;3625;51.762;14.320;2023-06-26T15:27:35;33.90;99.90
7167;DHT22;3625;51.762;14.320;2023-06-26T15:30:07;33.80;99.90
7167;DHT22;3625;51.762;14.320;2023-06-26T15:32:36;33.50;99.90
7167;DHT22;3625;51.762;14.320;2023-06-26T15:35:05;33.30;99.90
7167;DHT22;3625;51.762;14.320;2023-06-26T15:37:36;33.00;99.90
7167;DHT22;3625;51.762;14.320;2023-06-26T15:40:06;32.70;99.90
7167;DHT22;3625;51.762;14.320;2023-06-26T15:42:45;32.30;99.90
7167;DHT22;3625;51.762;14.320;2023-06-26T15:45:16;32.00;99.90
7167;DHT22;3625;51.762;14.320;2023-06-26T15:47:45;31.80;99.90
7167;DHT22;3625;51.762;14.320;2023-06-26T15:50:14;31.60;99.90
7167;DHT22;3625;51.762;14.320;2023-06-26T15:52:44;31.20;99.90
7167;DHT22;3625;51.762;14.320;2023-06-26T15:55:13;31.00;99.90
7167;DHT22;3625;51.762;14.320;2023-06-26T15:57:42;30.70;99.90
7167;DHT22;3625;51.762;14.320;2023-06-26T16:00:15;30.40;99.90
7167;DHT22;3625;51.762;14.320;2023-06-26T16:02:45;30.20;99.90
7167;DHT22;3625;51.762;14.320;2023-06-26T16:05:13;30.00;99.90
7167;DHT22;3625;51.762;14.320;2023-06-26T16:07:42;29.40;99.90
7167;DHT22;3625;51.762;14.320;2023-06-26T16:10:22;27.40;99.90